Nausori, Fiji
Current Conditions -  °F | °C
As of 10:00 PM on Monday 22 Dec 2014 (Local Time) from NFNA Reporting Station
Scattered Clouds Scattered Clouds  
Wind Chill: 79°   Ceiling: Unl
Heat Index: 82°   Visibility: 25mi
Dew Point: 72°   Wind: 12mph
Humidity: 78%   Direction: 110°ESE
Pressure: 29.83"   Gusts: NA
Location:  18.02°S, 178.53°E
Report Text: NFNA 221000Z 11010KT 40KM SCT022 26/22 Q1010 RMK RR NIL
Loading
Personal Weather Stations






























Interactive Weather Map New forecast layout! Learn more

10-Day Weather Forecast

Advertisements
Track Severe Weather on mobile